sensor_id;sensor_type;location;lat;lon;timestamp;P1;durP1;ratioP1;P2;durP2;ratioP2
21601;SDS011;10963;50.934;4.668;2023-11-19T00:00:05;4.33;;;2.27;;
21601;SDS011;10963;50.934;4.668;2023-11-19T00:02:39;5.60;;;2.10;;
21601;SDS011;10963;50.934;4.668;2023-11-19T00:05:08;5.23;;;2.60;;
21601;SDS011;10963;50.934;4.668;2023-11-19T00:07:36;5.97;;;2.70;;
21601;SDS011;10963;50.934;4.668;2023-11-19T00:10:10;7.77;;;2.90;;
21601;SDS011;10963;50.934;4.668;2023-11-19T00:12:44;11.77;;;3.70;;
21601;SDS011;10963;50.934;4.668;2023-11-19T00:15:13;6.87;;;3.00;;
21601;SDS011;10963;50.934;4.668;2023-11-19T00:17:47;8.70;;;3.07;;
21601;SDS011;10963;50.934;4.668;2023-11-19T00:20:16;7.30;;;2.90;;
21601;SDS011;10963;50.934;4.668;2023-11-19T00:22:43;8.07;;;3.73;;
21601;SDS011;10963;50.934;4.668;2023-11-19T00:25:09;7.90;;;3.30;;
21601;SDS011;10963;50.934;4.668;2023-11-19T00:27:35;7.00;;;3.23;;
21601;SDS011;10963;50.934;4.668;2023-11-19T00:30:12;13.90;;;3.20;;
21601;SDS011;10963;50.934;4.668;2023-11-19T00:32:39;6.43;;;3.17;;
21601;SDS011;10963;50.934;4.668;2023-11-19T00:35:05;14.00;;;3.93;;
21601;SDS011;10963;50.934;4.668;2023-11-19T00:37:35;12.07;;;3.60;;
21601;SDS011;10963;50.934;4.668;2023-11-19T00:40:03;17.27;;;3.97;;
21601;SDS011;10963;50.934;4.668;2023-11-19T00:42:30;13.10;;;3.67;;
21601;SDS011;10963;50.934;4.668;2023-11-19T00:44:56;12.57;;;3.60;;
21601;SDS011;10963;50.934;4.668;2023-11-19T00:47:24;13.43;;;3.50;;
21601;SDS011;10963;50.934;4.668;2023-11-19T00:49:53;14.73;;;3.40;;
21601;SDS011;10963;50.934;4.668;2023-11-19T00:52:21;10.00;;;3.53;;
21601;SDS011;10963;50.934;4.668;2023-11-19T00:54:47;15.67;;;3.57;;
21601;SDS011;10963;50.934;4.668;2023-11-19T00:57:15;18.50;;;3.90;;
21601;SDS011;10963;50.934;4.668;2023-11-19T00:59:43;19.10;;;3.63;;
21601;SDS011;10963;50.934;4.668;2023-11-19T01:02:09;10.90;;;3.27;;
21601;SDS011;10963;50.934;4.668;2023-11-19T01:04:35;7.37;;;3.00;;
21601;SDS011;10963;50.934;4.668;2023-11-19T01:07:02;11.10;;;3.63;;
21601;SDS011;10963;50.934;4.668;2023-11-19T01:09:41;14.20;;;3.90;;
21601;SDS011;10963;50.934;4.668;2023-11-19T01:12:10;8.80;;;3.00;;
21601;SDS011;10963;50.934;4.668;2023-11-19T01:14:35;13.93;;;3.70;;
21601;SDS011;10963;50.934;4.668;2023-11-19T01:17:03;8.83;;;3.63;;
21601;SDS011;10963;50.934;4.668;2023-11-19T01:19:29;14.57;;;3.27;;
21601;SDS011;10963;50.934;4.668;2023-11-19T01:22:00;12.13;;;3.00;;
21601;SDS011;10963;50.934;4.668;2023-11-19T01:24:26;17.77;;;3.33;;
21601;SDS011;10963;50.934;4.668;2023-11-19T01:26:58;13.53;;;3.20;;
21601;SDS011;10963;50.934;4.668;2023-11-19T01:29:26;8.47;;;2.50;;
21601;SDS011;10963;50.934;4.668;2023-11-19T01:31:52;12.40;;;4.00;;
21601;SDS011;10963;50.934;4.668;2023-11-19T01:34:20;15.53;;;3.20;;
21601;SDS011;10963;50.934;4.668;2023-11-19T01:36:49;17.13;;;3.30;;
21601;SDS011;10963;50.934;4.668;2023-11-19T01:39:17;15.50;;;3.27;;
21601;SDS011;10963;50.934;4.668;2023-11-19T01:41:46;13.67;;;2.93;;
21601;SDS011;10963;50.934;4.668;2023-11-19T01:44:11;11.27;;;2.60;;
21601;SDS011;10963;50.934;4.668;2023-11-19T01:46:45;12.00;;;2.93;;
21601;SDS011;10963;50.934;4.668;2023-11-19T01:49:15;12.50;;;2.80;;
21601;SDS011;10963;50.934;4.668;2023-11-19T01:51:42;18.80;;;2.97;;
21601;SDS011;10963;50.934;4.668;2023-11-19T01:54:09;13.63;;;2.70;;
21601;SDS011;10963;50.934;4.668;2023-11-19T01:56:38;7.33;;;2.97;;
21601;SDS011;10963;50.934;4.668;2023-11-19T01:59:07;14.30;;;3.53;;
21601;SDS011;10963;50.934;4.668;2023-11-19T02:01:35;12.63;;;3.33;;
21601;SDS011;10963;50.934;4.668;2023-11-19T02:04:05;9.53;;;2.60;;
21601;SDS011;10963;50.934;4.668;2023-11-19T02:06:35;13.27;;;3.80;;
21601;SDS011;10963;50.934;4.668;2023-11-19T02:09:05;14.03;;;3.43;;
21601;SDS011;10963;50.934;4.668;2023-11-19T02:11:33;8.97;;;3.53;;
21601;SDS011;10963;50.934;4.668;2023-11-19T02:14:00;13.00;;;3.20;;
21601;SDS011;10963;50.934;4.668;2023-11-19T02:16:31;14.03;;;3.53;;
21601;SDS011;10963;50.934;4.668;2023-11-19T02:19:00;18.63;;;4.33;;
21601;SDS011;10963;50.934;4.668;2023-11-19T02:21:25;15.60;;;3.37;;
21601;SDS011;10963;50.934;4.668;2023-11-19T02:23:51;19.03;;;3.93;;
21601;SDS011;10963;50.934;4.668;2023-11-19T02:28:43;15.50;;;3.70;;
21601;SDS011;10963;50.934;4.668;2023-11-19T02:31:09;12.43;;;3.13;;
21601;SDS011;10963;50.934;4.668;2023-11-19T02:33:38;9.90;;;3.10;;
21601;SDS011;10963;50.934;4.668;2023-11-19T02:36:04;20.53;;;4.63;;
21601;SDS011;10963;50.934;4.668;2023-11-19T02:38:32;21.90;;;4.17;;
21601;SDS011;10963;50.934;4.668;2023-11-19T02:40:58;17.73;;;3.90;;
21601;SDS011;10963;50.934;4.668;2023-11-19T02:43:27;14.93;;;3.20;;
21601;SDS011;10963;50.934;4.668;2023-11-19T02:45:56;23.27;;;3.97;;
21601;SDS011;10963;50.934;4.668;2023-11-19T02:48:27;18.63;;;3.80;;
21601;SDS011;10963;50.934;4.668;2023-11-19T02:50:52;21.53;;;3.63;;
21601;SDS011;10963;50.934;4.668;2023-11-19T02:53:18;14.23;;;3.40;;
21601;SDS011;10963;50.934;4.668;2023-11-19T02:55:47;14.30;;;3.20;;
21601;SDS011;10963;50.934;4.668;2023-11-19T02:58:15;15.53;;;2.87;;
21601;SDS011;10963;50.934;4.668;2023-11-19T03:00:49;17.73;;;3.40;;
21601;SDS011;10963;50.934;4.668;2023-11-19T03:03:22;18.10;;;3.33;;
21601;SDS011;10963;50.934;4.668;2023-11-19T03:05:53;20.50;;;3.17;;
21601;SDS011;10963;50.934;4.668;2023-11-19T03:08:21;21.40;;;3.40;;
21601;SDS011;10963;50.934;4.668;2023-11-19T03:10:47;18.87;;;4.10;;
21601;SDS011;10963;50.934;4.668;2023-11-19T03:13:16;18.50;;;3.80;;
21601;SDS011;10963;50.934;4.668;2023-11-19T03:15:47;14.70;;;3.77;;
21601;SDS011;10963;50.934;4.668;2023-11-19T03:18:15;14.53;;;3.37;;
21601;SDS011;10963;50.934;4.668;2023-11-19T03:20:41;16.30;;;3.20;;
21601;SDS011;10963;50.934;4.668;2023-11-19T03:23:12;22.50;;;3.37;;
21601;SDS011;10963;50.934;4.668;2023-11-19T03:25:38;16.53;;;3.93;;
21601;SDS011;10963;50.934;4.668;2023-11-19T03:28:06;16.07;;;4.13;;
21601;SDS011;10963;50.934;4.668;2023-11-19T03:30:31;16.53;;;3.50;;
21601;SDS011;10963;50.934;4.668;2023-11-19T03:32:59;18.90;;;4.67;;
21601;SDS011;10963;50.934;4.668;2023-11-19T03:35:26;21.50;;;3.67;;
21601;SDS011;10963;50.934;4.668;2023-11-19T03:37:55;14.60;;;3.30;;
21601;SDS011;10963;50.934;4.668;2023-11-19T03:40:23;22.87;;;4.33;;
21601;SDS011;10963;50.934;4.668;2023-11-19T03:42:51;20.33;;;3.30;;
21601;SDS011;10963;50.934;4.668;2023-11-19T03:45:17;21.10;;;3.73;;
21601;SDS011;10963;50.934;4.668;2023-11-19T03:47:47;19.63;;;3.57;;
21601;SDS011;10963;50.934;4.668;2023-11-19T03:50:17;15.17;;;3.50;;
21601;SDS011;10963;50.934;4.668;2023-11-19T03:52:45;20.00;;;3.40;;
21601;SDS011;10963;50.934;4.668;2023-11-19T03:55:13;17.73;;;3.77;;
21601;SDS011;10963;50.934;4.668;2023-11-19T03:57:39;25.23;;;3.47;;
21601;SDS011;10963;50.934;4.668;2023-11-19T04:00:07;29.10;;;5.17;;
21601;SDS011;10963;50.934;4.668;2023-11-19T04:02:41;23.37;;;4.17;;
21601;SDS011;10963;50.934;4.668;2023-11-19T04:05:07;25.70;;;4.17;;
21601;SDS011;10963;50.934;4.668;2023-11-19T04:07:33;13.07;;;3.30;;
21601;SDS011;10963;50.934;4.668;2023-11-19T04:09:59;21.37;;;4.33;;
21601;SDS011;10963;50.934;4.668;2023-11-19T04:12:30;14.00;;;2.67;;
21601;SDS011;10963;50.934;4.668;2023-11-19T04:14:58;28.17;;;3.83;;
21601;SDS011;10963;50.934;4.668;2023-11-19T04:17:23;15.67;;;3.27;;
21601;SDS011;10963;50.934;4.668;2023-11-19T04:19:49;23.90;;;3.87;;
21601;SDS011;10963;50.934;4.668;2023-11-19T04:22:15;16.20;;;3.43;;
21601;SDS011;10963;50.934;4.668;2023-11-19T04:24:41;19.70;;;3.47;;
21601;SDS011;10963;50.934;4.668;2023-11-19T04:27:11;20.50;;;3.63;;
21601;SDS011;10963;50.934;4.668;2023-11-19T04:29:40;20.87;;;3.83;;
21601;SDS011;10963;50.934;4.668;2023-11-19T04:32:07;24.83;;;3.90;;
21601;SDS011;10963;50.934;4.668;2023-11-19T04:34:34;31.63;;;4.97;;
21601;SDS011;10963;50.934;4.668;2023-11-19T04:36:59;26.20;;;4.23;;
21601;SDS011;10963;50.934;4.668;2023-11-19T04:39:28;22.07;;;3.33;;
21601;SDS011;10963;50.934;4.668;2023-11-19T04:41:54;24.17;;;4.63;;
21601;SDS011;10963;50.934;4.668;2023-11-19T04:44:20;31.70;;;4.80;;
21601;SDS011;10963;50.934;4.668;2023-11-19T04:46:46;14.07;;;3.20;;
21601;SDS011;10963;50.934;4.668;2023-11-19T04:49:12;25.27;;;3.67;;
21601;SDS011;10963;50.934;4.668;2023-11-19T04:51:45;16.00;;;3.20;;
21601;SDS011;10963;50.934;4.668;2023-11-19T04:54:16;22.43;;;3.80;;
21601;SDS011;10963;50.934;4.668;2023-11-19T04:56:45;25.27;;;4.50;;
21601;SDS011;10963;50.934;4.668;2023-11-19T04:59:12;23.10;;;3.53;;
21601;SDS011;10963;50.934;4.668;2023-11-19T05:01:38;27.87;;;3.67;;
21601;SDS011;10963;50.934;4.668;2023-11-19T05:04:07;31.47;;;4.40;;
21601;SDS011;10963;50.934;4.668;2023-11-19T05:06:33;23.27;;;3.90;;
21601;SDS011;10963;50.934;4.668;2023-11-19T05:09:02;32.53;;;5.10;;
21601;SDS011;10963;50.934;4.668;2023-11-19T05:11:35;17.73;;;4.00;;
21601;SDS011;10963;50.934;4.668;2023-11-19T05:14:04;22.80;;;3.50;;
21601;SDS011;10963;50.934;4.668;2023-11-19T05:16:34;27.57;;;4.20;;
21601;SDS011;10963;50.934;4.668;2023-11-19T05:19:04;25.53;;;4.10;;
21601;SDS011;10963;50.934;4.668;2023-11-19T05:21:30;26.50;;;4.60;;
21601;SDS011;10963;50.934;4.668;2023-11-19T05:23:55;22.17;;;4.00;;
21601;SDS011;10963;50.934;4.668;2023-11-19T05:26:22;25.60;;;5.00;;
21601;SDS011;10963;50.934;4.668;2023-11-19T05:28:49;17.33;;;3.83;;
21601;SDS011;10963;50.934;4.668;2023-11-19T05:31:16;30.77;;;4.07;;
21601;SDS011;10963;50.934;4.668;2023-11-19T05:33:46;27.23;;;4.50;;
21601;SDS011;10963;50.934;4.668;2023-11-19T05:36:15;28.23;;;4.93;;
21601;SDS011;10963;50.934;4.668;2023-11-19T05:38:40;23.60;;;4.27;;
21601;SDS011;10963;50.934;4.668;2023-11-19T05:41:09;20.30;;;4.80;;
21601;SDS011;10963;50.934;4.668;2023-11-19T05:43:37;22.53;;;4.60;;
21601;SDS011;10963;50.934;4.668;2023-11-19T05:46:05;28.63;;;3.77;;
21601;SDS011;10963;50.934;4.668;2023-11-19T05:48:31;29.10;;;4.40;;
21601;SDS011;10963;50.934;4.668;2023-11-19T05:50:59;25.03;;;4.27;;
21601;SDS011;10963;50.934;4.668;2023-11-19T05:53:25;30.83;;;4.30;;
21601;SDS011;10963;50.934;4.668;2023-11-19T05:55:51;21.93;;;4.70;;
21601;SDS011;10963;50.934;4.668;2023-11-19T05:58:26;31.47;;;4.50;;
21601;SDS011;10963;50.934;4.668;2023-11-19T06:00:55;18.20;;;4.33;;
21601;SDS011;10963;50.934;4.668;2023-11-19T06:03:22;24.13;;;5.00;;
21601;SDS011;10963;50.934;4.668;2023-11-19T06:05:48;33.57;;;5.07;;
21601;SDS011;10963;50.934;4.668;2023-11-19T06:08:14;24.70;;;3.87;;
21601;SDS011;10963;50.934;4.668;2023-11-19T06:10:42;26.53;;;5.80;;
21601;SDS011;10963;50.934;4.668;2023-11-19T06:13:11;29.37;;;4.40;;
21601;SDS011;10963;50.934;4.668;2023-11-19T06:15:43;30.93;;;4.13;;
21601;SDS011;10963;50.934;4.668;2023-11-19T06:18:09;28.77;;;3.90;;
21601;SDS011;10963;50.934;4.668;2023-11-19T06:20:37;23.90;;;5.43;;
21601;SDS011;10963;50.934;4.668;2023-11-19T06:23:03;32.37;;;4.47;;
21601;SDS011;10963;50.934;4.668;2023-11-19T06:25:33;19.20;;;4.33;;
21601;SDS011;10963;50.934;4.668;2023-11-19T06:28:00;23.97;;;4.87;;
21601;SDS011;10963;50.934;4.668;2023-11-19T06:30:26;28.03;;;4.57;;
21601;SDS011;10963;50.934;4.668;2023-11-19T06:32:53;31.67;;;4.70;;
21601;SDS011;10963;50.934;4.668;2023-11-19T06:35:19;30.50;;;4.80;;
21601;SDS011;10963;50.934;4.668;2023-11-19T06:37:45;21.47;;;4.83;;
21601;SDS011;10963;50.934;4.668;2023-11-19T06:40:10;28.00;;;4.43;;
21601;SDS011;10963;50.934;4.668;2023-11-19T06:42:39;25.33;;;5.30;;
21601;SDS011;10963;50.934;4.668;2023-11-19T06:45:09;24.87;;;5.00;;
21601;SDS011;10963;50.934;4.668;2023-11-19T06:47:38;29.30;;;4.03;;
21601;SDS011;10963;50.934;4.668;2023-11-19T06:50:06;22.47;;;4.13;;
21601;SDS011;10963;50.934;4.668;2023-11-19T06:52:39;28.03;;;4.57;;
21601;SDS011;10963;50.934;4.668;2023-11-19T06:55:07;23.53;;;4.27;;
21601;SDS011;10963;50.934;4.668;2023-11-19T06:57:33;24.00;;;4.70;;
21601;SDS011;10963;50.934;4.668;2023-11-19T06:59:59;32.30;;;5.60;;
21601;SDS011;10963;50.934;4.668;2023-11-19T07:02:25;23.80;;;4.27;;
21601;SDS011;10963;50.934;4.668;2023-11-19T07:04:51;21.73;;;4.10;;
21601;SDS011;10963;50.934;4.668;2023-11-19T07:07:17;28.00;;;4.70;;
21601;SDS011;10963;50.934;4.668;2023-11-19T07:09:42;26.70;;;4.40;;
21601;SDS011;10963;50.934;4.668;2023-11-19T07:12:08;23.77;;;3.53;;
21601;SDS011;10963;50.934;4.668;2023-11-19T07:14:37;23.30;;;3.90;;
21601;SDS011;10963;50.934;4.668;2023-11-19T07:17:02;14.50;;;3.50;;
21601;SDS011;10963;50.934;4.668;2023-11-19T07:19:28;32.47;;;4.83;;
21601;SDS011;10963;50.934;4.668;2023-11-19T07:21:54;28.93;;;4.53;;
21601;SDS011;10963;50.934;4.668;2023-11-19T07:24:21;21.20;;;5.67;;
21601;SDS011;10963;50.934;4.668;2023-11-19T07:26:47;24.13;;;4.40;;
21601;SDS011;10963;50.934;4.668;2023-11-19T07:29:15;23.93;;;4.20;;
21601;SDS011;10963;50.934;4.668;2023-11-19T07:31:44;25.13;;;6.07;;
21601;SDS011;10963;50.934;4.668;2023-11-19T07:34:10;26.90;;;4.57;;
21601;SDS011;10963;50.934;4.668;2023-11-19T07:36:37;28.83;;;5.47;;
21601;SDS011;10963;50.934;4.668;2023-11-19T07:39:03;22.97;;;4.23;;
21601;SDS011;10963;50.934;4.668;2023-11-19T07:41:31;27.67;;;5.53;;
21601;SDS011;10963;50.934;4.668;2023-11-19T07:43:57;30.83;;;4.90;;
21601;SDS011;10963;50.934;4.668;2023-11-19T07:46:23;21.53;;;4.83;;
21601;SDS011;10963;50.934;4.668;2023-11-19T07:48:50;36.17;;;5.20;;
21601;SDS011;10963;50.934;4.668;2023-11-19T07:51:19;32.43;;;4.87;;
21601;SDS011;10963;50.934;4.668;2023-11-19T07:53:45;29.30;;;5.37;;
21601;SDS011;10963;50.934;4.668;2023-11-19T07:56:14;19.77;;;5.37;;
21601;SDS011;10963;50.934;4.668;2023-11-19T07:58:40;28.43;;;5.23;;
21601;SDS011;10963;50.934;4.668;2023-11-19T08:01:06;26.77;;;5.17;;
21601;SDS011;10963;50.934;4.668;2023-11-19T08:03:34;30.30;;;5.03;;
21601;SDS011;10963;50.934;4.668;2023-11-19T08:06:00;30.37;;;6.03;;
21601;SDS011;10963;50.934;4.668;2023-11-19T08:08:26;25.23;;;4.70;;
21601;SDS011;10963;50.934;4.668;2023-11-19T08:10:54;25.60;;;4.87;;
21601;SDS011;10963;50.934;4.668;2023-11-19T08:13:21;27.93;;;5.57;;
21601;SDS011;10963;50.934;4.668;2023-11-19T08:15:48;25.40;;;3.63;;
21601;SDS011;10963;50.934;4.668;2023-11-19T08:18:17;30.60;;;4.97;;
21601;SDS011;10963;50.934;4.668;2023-11-19T08:20:43;29.23;;;4.73;;
21601;SDS011;10963;50.934;4.668;2023-11-19T08:23:10;20.93;;;4.30;;
21601;SDS011;10963;50.934;4.668;2023-11-19T08:25:38;33.83;;;5.60;;
21601;SDS011;10963;50.934;4.668;2023-11-19T08:28:04;26.73;;;4.97;;
21601;SDS011;10963;50.934;4.668;2023-11-19T08:30:29;17.63;;;4.03;;
21601;SDS011;10963;50.934;4.668;2023-11-19T08:32:58;21.87;;;4.27;;
21601;SDS011;10963;50.934;4.668;2023-11-19T08:35:30;26.40;;;4.63;;
21601;SDS011;10963;50.934;4.668;2023-11-19T08:37:55;18.87;;;3.33;;
21601;SDS011;10963;50.934;4.668;2023-11-19T08:40:22;29.73;;;5.40;;
21601;SDS011;10963;50.934;4.668;2023-11-19T08:42:48;29.53;;;4.47;;
21601;SDS011;10963;50.934;4.668;2023-11-19T08:45:13;20.33;;;5.27;;
21601;SDS011;10963;50.934;4.668;2023-11-19T08:47:39;15.43;;;4.00;;
21601;SDS011;10963;50.934;4.668;2023-11-19T08:50:07;26.93;;;4.83;;
21601;SDS011;10963;50.934;4.668;2023-11-19T08:52:36;18.67;;;4.07;;
21601;SDS011;10963;50.934;4.668;2023-11-19T08:55:01;29.77;;;4.37;;
21601;SDS011;10963;50.934;4.668;2023-11-19T08:57:30;28.40;;;4.20;;
21601;SDS011;10963;50.934;4.668;2023-11-19T08:59:59;29.10;;;4.00;;
21601;SDS011;10963;50.934;4.668;2023-11-19T09:02:27;17.80;;;3.83;;
21601;SDS011;10963;50.934;4.668;2023-11-19T09:04:53;18.47;;;3.43;;
21601;SDS011;10963;50.934;4.668;2023-11-19T09:07:21;22.20;;;3.80;;
21601;SDS011;10963;50.934;4.668;2023-11-19T09:09:49;21.13;;;4.37;;
21601;SDS011;10963;50.934;4.668;2023-11-19T09:12:19;17.03;;;3.60;;
21601;SDS011;10963;50.934;4.668;2023-11-19T09:14:47;16.47;;;3.40;;
21601;SDS011;10963;50.934;4.668;2023-11-19T09:17:14;13.67;;;4.13;;
21601;SDS011;10963;50.934;4.668;2023-11-19T09:19:43;24.80;;;4.00;;
21601;SDS011;10963;50.934;4.668;2023-11-19T09:22:10;22.27;;;3.80;;
21601;SDS011;10963;50.934;4.668;2023-11-19T09:24:36;24.57;;;3.53;;
21601;SDS011;10963;50.934;4.668;2023-11-19T09:27:04;20.83;;;5.00;;
21601;SDS011;10963;50.934;4.668;2023-11-19T09:29:33;17.93;;;3.30;;
21601;SDS011;10963;50.934;4.668;2023-11-19T09:31:59;25.10;;;3.80;;
21601;SDS011;10963;50.934;4.668;2023-11-19T09:34:25;25.83;;;4.23;;
21601;SDS011;10963;50.934;4.668;2023-11-19T09:36:53;17.63;;;3.40;;
21601;SDS011;10963;50.934;4.668;2023-11-19T09:39:19;21.83;;;5.33;;
21601;SDS011;10963;50.934;4.668;2023-11-19T09:41:45;24.03;;;3.97;;
21601;SDS011;10963;50.934;4.668;2023-11-19T09:44:14;29.67;;;4.30;;
21601;SDS011;10963;50.934;4.668;2023-11-19T09:46:45;23.17;;;3.90;;
21601;SDS011;10963;50.934;4.668;2023-11-19T09:49:14;23.90;;;3.73;;
21601;SDS011;10963;50.934;4.668;2023-11-19T09:51:44;15.53;;;3.07;;
21601;SDS011;10963;50.934;4.668;2023-11-19T09:54:10;21.07;;;3.57;;
21601;SDS011;10963;50.934;4.668;2023-11-19T09:56:38;18.53;;;3.97;;
21601;SDS011;10963;50.934;4.668;2023-11-19T09:59:05;18.80;;;3.30;;
21601;SDS011;10963;50.934;4.668;2023-11-19T10:01:30;14.93;;;3.07;;
21601;SDS011;10963;50.934;4.668;2023-11-19T10:03:57;17.90;;;3.40;;
21601;SDS011;10963;50.934;4.668;2023-11-19T10:06:24;9.20;;;2.37;;
21601;SDS011;10963;50.934;4.668;2023-11-19T10:08:51;16.70;;;4.00;;
21601;SDS011;10963;50.934;4.668;2023-11-19T10:11:18;15.57;;;4.03;;
21601;SDS011;10963;50.934;4.668;2023-11-19T10:13:43;16.57;;;4.20;;
21601;SDS011;10963;50.934;4.668;2023-11-19T10:16:12;20.97;;;4.33;;
21601;SDS011;10963;50.934;4.668;2023-11-19T10:18:48;16.53;;;4.20;;
21601;SDS011;10963;50.934;4.668;2023-11-19T10:21:20;12.33;;;2.87;;
21601;SDS011;10963;50.934;4.668;2023-11-19T10:26:18;17.37;;;3.43;;
21601;SDS011;10963;50.934;4.668;2023-11-19T10:28:45;15.97;;;3.67;;
21601;SDS011;10963;50.934;4.668;2023-11-19T10:31:13;21.63;;;3.40;;
21601;SDS011;10963;50.934;4.668;2023-11-19T10:33:42;24.67;;;3.63;;
21601;SDS011;10963;50.934;4.668;2023-11-19T10:36:10;17.03;;;3.30;;
21601;SDS011;10963;50.934;4.668;2023-11-19T10:38:39;19.17;;;3.73;;
21601;SDS011;10963;50.934;4.668;2023-11-19T10:41:06;15.07;;;3.57;;
21601;SDS011;10963;50.934;4.668;2023-11-19T10:43:42;19.17;;;2.97;;
21601;SDS011;10963;50.934;4.668;2023-11-19T10:46:11;23.93;;;4.03;;
21601;SDS011;10963;50.934;4.668;2023-11-19T10:48:38;16.47;;;3.90;;
21601;SDS011;10963;50.934;4.668;2023-11-19T10:51:07;20.73;;;3.87;;
21601;SDS011;10963;50.934;4.668;2023-11-19T10:53:38;24.90;;;4.47;;
21601;SDS011;10963;50.934;4.668;2023-11-19T10:56:05;13.73;;;3.53;;
21601;SDS011;10963;50.934;4.668;2023-11-19T10:58:35;23.03;;;4.60;;
21601;SDS011;10963;50.934;4.668;2023-11-19T11:01:07;20.17;;;3.20;;
21601;SDS011;10963;50.934;4.668;2023-11-19T11:03:39;17.83;;;3.60;;
21601;SDS011;10963;50.934;4.668;2023-11-19T11:06:05;19.40;;;3.53;;
21601;SDS011;10963;50.934;4.668;2023-11-19T11:08:31;20.87;;;3.53;;
21601;SDS011;10963;50.934;4.668;2023-11-19T11:11:01;20.07;;;3.70;;
21601;SDS011;10963;50.934;4.668;2023-11-19T11:13:29;15.73;;;3.77;;
21601;SDS011;10963;50.934;4.668;2023-11-19T11:15:58;14.03;;;3.60;;
21601;SDS011;10963;50.934;4.668;2023-11-19T11:18:27;15.20;;;3.03;;
21601;SDS011;10963;50.934;4.668;2023-11-19T11:21:05;11.50;;;2.77;;
21601;SDS011;10963;50.934;4.668;2023-11-19T11:23:44;11.57;;;3.13;;
21601;SDS011;10963;50.934;4.668;2023-11-19T11:35:39;22.60;;;3.47;;
21601;SDS011;10963;50.934;4.668;2023-11-19T11:38:07;16.80;;;3.50;;
21601;SDS011;10963;50.934;4.668;2023-11-19T11:40:34;17.73;;;4.40;;
21601;SDS011;10963;50.934;4.668;2023-11-19T11:43:03;19.23;;;4.30;;
21601;SDS011;10963;50.934;4.668;2023-11-19T11:45:39;16.53;;;3.93;;
21601;SDS011;10963;50.934;4.668;2023-11-19T11:50:36;21.40;;;4.17;;
21601;SDS011;10963;50.934;4.668;2023-11-19T11:53:14;22.20;;;4.70;;
21601;SDS011;10963;50.934;4.668;2023-11-19T11:58:25;20.57;;;3.97;;
21601;SDS011;10963;50.934;4.668;2023-11-19T12:00:52;21.40;;;4.17;;
21601;SDS011;10963;50.934;4.668;2023-11-19T12:03:22;21.50;;;4.33;;
21601;SDS011;10963;50.934;4.668;2023-11-19T12:05:57;21.43;;;3.90;;
21601;SDS011;10963;50.934;4.668;2023-11-19T12:08:26;19.13;;;3.90;;
21601;SDS011;10963;50.934;4.668;2023-11-19T12:10:56;20.70;;;4.10;;
21601;SDS011;10963;50.934;4.668;2023-11-19T12:13:23;20.50;;;5.60;;
21601;SDS011;10963;50.934;4.668;2023-11-19T12:18:22;21.10;;;4.50;;
21601;SDS011;10963;50.934;4.668;2023-11-19T12:20:49;19.73;;;4.23;;
21601;SDS011;10963;50.934;4.668;2023-11-19T12:23:17;23.37;;;4.30;;
21601;SDS011;10963;50.934;4.668;2023-11-19T12:25:43;14.60;;;3.13;;
21601;SDS011;10963;50.934;4.668;2023-11-19T12:28:12;16.73;;;3.47;;
21601;SDS011;10963;50.934;4.668;2023-11-19T12:30:42;16.10;;;3.00;;
21601;SDS011;10963;50.934;4.668;2023-11-19T12:33:09;11.83;;;3.53;;
21601;SDS011;10963;50.934;4.668;2023-11-19T12:35:39;16.00;;;3.00;;
21601;SDS011;10963;50.934;4.668;2023-11-19T12:38:05;12.40;;;2.67;;
21601;SDS011;10963;50.934;4.668;2023-11-19T12:40:31;17.97;;;3.23;;
21601;SDS011;10963;50.934;4.668;2023-11-19T12:42:57;14.40;;;3.93;;
21601;SDS011;10963;50.934;4.668;2023-11-19T12:45:34;17.70;;;2.90;;
21601;SDS011;10963;50.934;4.668;2023-11-19T12:48:06;11.83;;;3.10;;
21601;SDS011;10963;50.934;4.668;2023-11-19T12:53:21;15.33;;;3.67;;
21601;SDS011;10963;50.934;4.668;2023-11-19T12:55:48;10.07;;;2.20;;
21601;SDS011;10963;50.934;4.668;2023-11-19T13:01:04;13.73;;;3.20;;
21601;SDS011;10963;50.934;4.668;2023-11-19T13:03:31;16.37;;;3.37;;
21601;SDS011;10963;50.934;4.668;2023-11-19T13:06:10;16.97;;;3.53;;
21601;SDS011;10963;50.934;4.668;2023-11-19T13:11:03;14.97;;;3.80;;
21601;SDS011;10963;50.934;4.668;2023-11-19T13:13:29;20.37;;;3.27;;
21601;SDS011;10963;50.934;4.668;2023-11-19T13:16:01;14.73;;;3.40;;
21601;SDS011;10963;50.934;4.668;2023-11-19T13:18:30;16.50;;;3.50;;
21601;SDS011;10963;50.934;4.668;2023-11-19T13:20:56;16.37;;;3.20;;
21601;SDS011;10963;50.934;4.668;2023-11-19T13:23:27;25.43;;;4.33;;
21601;SDS011;10963;50.934;4.668;2023-11-19T13:25:55;20.40;;;2.90;;
21601;SDS011;10963;50.934;4.668;2023-11-19T13:28:21;22.23;;;3.47;;
21601;SDS011;10963;50.934;4.668;2023-11-19T13:30:47;24.70;;;4.53;;
21601;SDS011;10963;50.934;4.668;2023-11-19T13:33:15;14.63;;;3.30;;
21601;SDS011;10963;50.934;4.668;2023-11-19T13:35:41;17.33;;;3.40;;
21601;SDS011;10963;50.934;4.668;2023-11-19T13:38:06;15.90;;;4.00;;
21601;SDS011;10963;50.934;4.668;2023-11-19T13:40:36;13.93;;;3.27;;
21601;SDS011;10963;50.934;4.668;2023-11-19T13:43:01;13.97;;;3.37;;
21601;SDS011;10963;50.934;4.668;2023-11-19T13:45:29;18.40;;;3.47;;
21601;SDS011;10963;50.934;4.668;2023-11-19T13:47:55;18.93;;;2.80;;
21601;SDS011;10963;50.934;4.668;2023-11-19T13:50:24;15.73;;;3.03;;
21601;SDS011;10963;50.934;4.668;2023-11-19T13:52:53;19.17;;;4.27;;
21601;SDS011;10963;50.934;4.668;2023-11-19T13:55:21;13.07;;;3.20;;
21601;SDS011;10963;50.934;4.668;2023-11-19T13:57:49;13.97;;;3.40;;
21601;SDS011;10963;50.934;4.668;2023-11-19T14:00:15;17.27;;;2.70;;
21601;SDS011;10963;50.934;4.668;2023-11-19T14:02:44;16.90;;;3.43;;
21601;SDS011;10963;50.934;4.668;2023-11-19T14:05:14;14.13;;;3.33;;
21601;SDS011;10963;50.934;4.668;2023-11-19T14:07:42;15.97;;;4.00;;
21601;SDS011;10963;50.934;4.668;2023-11-19T14:10:13;14.30;;;3.90;;
21601;SDS011;10963;50.934;4.668;2023-11-19T14:12:40;23.87;;;3.53;;
21601;SDS011;10963;50.934;4.668;2023-11-19T14:15:07;18.57;;;3.90;;
21601;SDS011;10963;50.934;4.668;2023-11-19T14:17:37;18.30;;;3.53;;
21601;SDS011;10963;50.934;4.668;2023-11-19T14:20:02;19.83;;;3.23;;
21601;SDS011;10963;50.934;4.668;2023-11-19T14:22:54;16.47;;;3.73;;
21601;SDS011;10963;50.934;4.668;2023-11-19T14:25:20;17.87;;;3.67;;
21601;SDS011;10963;50.934;4.668;2023-11-19T14:27:48;15.27;;;3.67;;
21601;SDS011;10963;50.934;4.668;2023-11-19T14:30:14;23.77;;;3.93;;
21601;SDS011;10963;50.934;4.668;2023-11-19T14:32:41;13.93;;;4.07;;
21601;SDS011;10963;50.934;4.668;2023-11-19T14:35:11;20.13;;;3.70;;
21601;SDS011;10963;50.934;4.668;2023-11-19T14:37:36;15.10;;;3.87;;
21601;SDS011;10963;50.934;4.668;2023-11-19T14:40:05;21.23;;;3.77;;
21601;SDS011;10963;50.934;4.668;2023-11-19T14:42:36;21.17;;;4.17;;
21601;SDS011;10963;50.934;4.668;2023-11-19T14:45:04;15.47;;;3.33;;
21601;SDS011;10963;50.934;4.668;2023-11-19T14:47:30;21.03;;;4.27;;
21601;SDS011;10963;50.934;4.668;2023-11-19T14:49:58;23.93;;;3.80;;
21601;SDS011;10963;50.934;4.668;2023-11-19T14:52:24;20.87;;;3.53;;
21601;SDS011;10963;50.934;4.668;2023-11-19T14:54:55;20.17;;;3.60;;
21601;SDS011;10963;50.934;4.668;2023-11-19T14:57:21;28.50;;;5.17;;
21601;SDS011;10963;50.934;4.668;2023-11-19T14:59:47;20.43;;;3.60;;
21601;SDS011;10963;50.934;4.668;2023-11-19T15:02:15;25.73;;;4.10;;
21601;SDS011;10963;50.934;4.668;2023-11-19T15:04:44;18.40;;;3.50;;
21601;SDS011;10963;50.934;4.668;2023-11-19T15:07:09;21.43;;;4.00;;
21601;SDS011;10963;50.934;4.668;2023-11-19T15:09:37;23.67;;;5.43;;